createdAt,value
2019-05-14T00:02:17.431Z,84.58
2019-05-14T00:04:48.212Z,84.30
2019-05-14T00:07:18.993Z,84.26
2019-05-14T00:09:51.702Z,84.31
2019-05-14T00:12:23.310Z,84.67
2019-05-14T00:14:54.024Z,85.30
2019-05-14T00:17:26.699Z,84.95
2019-05-14T00:20:07.320Z,86.28
2019-05-14T00:22:32.008Z,86.46
2019-05-14T00:25:02.696Z,87.13
2019-05-14T00:27:33.354Z,86.61
2019-05-14T00:30:04.405Z,86.37
2019-05-14T00:32:35.072Z,86.13
2019-05-14T00:35:05.875Z,85.72
2019-05-14T00:37:37.773Z,85.95
2019-05-14T00:40:13.449Z,86.47
2019-05-14T00:42:44.288Z,86.98
2019-05-14T00:45:16.569Z,87.27
2019-05-14T00:47:47.145Z,87.92
2019-05-14T00:50:21.597Z,87.68
2019-05-14T00:52:54.796Z,87.27
2019-05-14T00:55:25.395Z,88.28
2019-05-14T00:57:55.980Z,88.26
2019-05-14T01:00:26.655Z,88.36
2019-05-14T01:02:57.578Z,89.43
2019-05-14T01:05:31.983Z,89.35
2019-05-14T01:08:07.220Z,88.92
2019-05-14T01:10:41.623Z,88.98
2019-05-14T01:13:12.403Z,88.23
2019-05-14T01:15:43.025Z,88.35
2019-05-14T01:18:13.561Z,88.58
2019-05-14T01:20:45.221Z,88.46
2019-05-14T01:23:15.768Z,88.57
2019-05-14T01:25:51.618Z,88.00
2019-05-14T01:28:22.293Z,88.23
2019-05-14T01:30:52.858Z,89.00
2019-05-14T01:33:25.778Z,88.57
2019-05-14T01:35:56.321Z,88.05
2019-05-14T01:38:26.904Z,88.26
2019-05-14T01:40:57.474Z,88.17
2019-05-14T01:43:31.434Z,87.92
2019-05-14T01:46:02.347Z,88.01
2019-05-14T01:48:32.884Z,88.12
2019-05-14T01:51:03.491Z,89.16
2019-05-14T01:53:34.011Z,89.37
2019-05-14T01:56:04.648Z,89.50
2019-05-14T01:58:35.233Z,90.24
2019-05-14T02:01:05.859Z,90.39
2019-05-14T02:03:36.452Z,90.95
2019-05-14T02:06:07.040Z,90.03
2019-05-14T02:08:37.628Z,90.38
2019-05-14T02:11:08.206Z,90.11
2019-05-14T02:13:41.248Z,90.51
2019-05-14T02:16:13.082Z,90.39
2019-05-14T02:18:43.506Z,90.27
2019-05-14T02:21:14.087Z,90.20
2019-05-14T02:23:44.694Z,89.76
2019-05-14T02:26:15.276Z,89.86
2019-05-14T02:28:45.783Z,89.64
2019-05-14T02:31:19.945Z,89.68
2019-05-14T02:33:50.342Z,89.88
2019-05-14T02:36:24.359Z,91.00
2019-05-14T02:38:54.878Z,90.48
2019-05-14T02:41:25.423Z,90.94
2019-05-14T02:43:59.176Z,90.68
2019-05-14T02:46:29.528Z,90.49
2019-05-14T02:49:00.396Z,91.09
2019-05-14T02:51:30.984Z,91.67
2019-05-14T02:54:01.539Z,90.97
2019-05-14T02:56:32.122Z,91.00
2019-05-14T02:59:05.585Z,91.20
2019-05-14T03:01:34.971Z,91.68
2019-05-14T03:04:08.930Z,91.54
2019-05-14T03:06:39.474Z,91.34
2019-05-14T03:09:11.772Z,91.14
2019-05-14T03:11:42.361Z,90.81
2019-05-14T03:14:12.903Z,90.54
2019-05-14T03:16:49.314Z,90.66
2019-05-14T03:19:19.665Z,90.89
2019-05-14T03:21:50.545Z,90.49
2019-05-14T03:24:21.133Z,90.58
2019-05-14T03:26:51.689Z,90.71
2019-05-14T03:29:25.893Z,91.19
2019-05-14T03:31:55.758Z,91.32
2019-05-14T03:34:26.291Z,91.44
2019-05-14T03:37:02.481Z,91.39
2019-05-14T03:39:31.159Z,91.61
2019-05-14T03:42:01.750Z,91.46
2019-05-14T03:44:32.533Z,91.78
2019-05-14T03:47:05.155Z,91.96
2019-05-14T03:49:35.462Z,92.12
2019-05-14T03:52:09.322Z,91.97
2019-05-14T03:54:40.632Z,91.70
2019-05-14T03:57:10.737Z,91.59
2019-05-14T03:59:41.330Z,91.10
2019-05-14T04:02:12.355Z,91.11
2019-05-14T04:04:44.171Z,91.25
2019-05-14T04:07:19.657Z,91.31
2019-05-14T04:09:51.729Z,91.68
2019-05-14T04:12:25.620Z,91.72
2019-05-14T04:14:59.653Z,91.53
2019-05-14T04:17:38.783Z,92.11
2019-05-14T04:20:09.680Z,92.22
2019-05-14T04:22:42.118Z,92.42
2019-05-14T04:25:13.026Z,92.24
2019-05-14T04:27:49.475Z,92.43
2019-05-14T04:30:23.996Z,92.16
2019-05-14T04:32:53.980Z,92.08
2019-05-14T04:35:24.544Z,92.48
2019-05-14T04:37:55.131Z,92.35
2019-05-14T04:40:25.671Z,92.51
2019-05-14T04:42:59.113Z,92.41
2019-05-14T04:45:29.699Z,92.36
2019-05-14T04:48:00.501Z,92.76
2019-05-14T04:50:30.985Z,93.21
2019-05-14T04:53:01.617Z,93.30
2019-05-14T04:55:32.194Z,93.44
2019-05-14T04:58:02.776Z,93.32
2019-05-14T05:00:33.338Z,93.14
2019-05-14T05:03:08.237Z,93.22
2019-05-14T05:05:39.415Z,93.76
2019-05-14T05:08:13.987Z,94.45
2019-05-14T05:10:42.203Z,94.68
2019-05-14T05:13:12.824Z,94.25
2019-05-14T05:15:43.403Z,93.86
2019-05-14T05:18:14.005Z,93.45
2019-05-14T05:20:45.957Z,93.96
2019-05-14T05:23:18.832Z,94.66
2019-05-14T05:25:49.108Z,94.49
2019-05-14T05:28:21.509Z,94.37
2019-05-14T05:30:52.109Z,94.67
2019-05-14T05:33:22.705Z,94.14
2019-05-14T05:35:53.267Z,93.72
2019-05-14T05:38:23.824Z,93.60
2019-05-14T05:40:56.637Z,93.46
2019-05-14T05:43:28.539Z,93.38
2019-05-14T05:46:01.798Z,93.05
2019-05-14T05:48:32.416Z,93.27
2019-05-14T05:51:02.973Z,92.51
2019-05-14T05:53:33.617Z,92.35
2019-05-14T05:56:04.257Z,91.55
2019-05-14T05:58:39.751Z,91.20
2019-05-14T06:01:09.770Z,91.21
2019-05-14T06:03:41.105Z,90.96
2019-05-14T06:06:13.590Z,90.67
2019-05-14T06:08:45.424Z,90.17
2019-05-14T06:11:19.347Z,89.69
2019-05-14T06:13:49.839Z,89.04
2019-05-14T06:16:20.392Z,89.04
2019-05-14T06:18:51.066Z,89.29
2019-05-14T06:21:21.585Z,89.17
2019-05-14T06:23:52.226Z,86.58
2019-05-14T06:26:22.754Z,84.44
2019-05-14T06:28:53.361Z,84.11
2019-05-14T06:31:23.903Z,83.97
2019-05-14T06:33:54.521Z,83.13
2019-05-14T06:36:25.100Z,82.50
2019-05-14T06:38:55.676Z,79.95
2019-05-14T06:41:28.357Z,80.02
2019-05-14T06:43:59.088Z,81.30
2019-05-14T06:46:30.093Z,81.09
2019-05-14T06:49:00.840Z,81.07
2019-05-14T06:51:31.433Z,80.96
2019-05-14T06:54:02.155Z,80.93
2019-05-14T06:56:32.668Z,79.75
2019-05-14T06:59:03.320Z,77.91
2019-05-14T07:01:33.905Z,77.57
2019-05-14T07:04:04.639Z,77.47
2019-05-14T07:06:35.248Z,75.52
2019-05-14T07:09:08.216Z,75.34
2019-05-14T07:11:39.046Z,74.80
2019-05-14T07:14:11.621Z,74.83
2019-05-14T07:16:41.871Z,74.93
2019-05-14T07:19:15.567Z,75.29
2019-05-14T07:21:44.789Z,75.56
2019-05-14T07:24:15.333Z,75.59
2019-05-14T07:26:45.935Z,74.06
2019-05-14T07:29:18.522Z,73.49
2019-05-14T07:31:49.093Z,74.21
2019-05-14T07:34:19.716Z,73.53
2019-05-14T07:36:50.377Z,74.29
2019-05-14T07:39:20.883Z,73.93
2019-05-14T07:41:51.530Z,74.15
2019-05-14T07:44:24.866Z,74.47
2019-05-14T07:46:56.207Z,73.69
2019-05-14T07:49:28.882Z,73.18
2019-05-14T07:51:59.099Z,73.41
2019-05-14T07:54:29.682Z,72.92
2019-05-14T07:57:00.291Z,73.32
2019-05-14T07:59:30.869Z,73.09
2019-05-14T08:02:01.438Z,72.50
2019-05-14T08:04:31.959Z,71.28
2019-05-14T08:07:02.615Z,71.32
2019-05-14T08:09:33.207Z,71.97
2019-05-14T08:12:03.786Z,69.95
2019-05-14T08:14:53.031Z,67.24
2019-05-14T08:17:08.616Z,65.58
2019-05-14T08:19:39.064Z,63.53
2019-05-14T08:22:09.779Z,62.56
2019-05-14T08:24:40.368Z,61.66
2019-05-14T08:27:11.023Z,62.09
2019-05-14T08:29:41.732Z,61.54
2019-05-14T08:32:12.373Z,61.25
2019-05-14T08:34:42.944Z,58.83
2019-05-14T08:37:13.534Z,58.73
2019-05-14T08:39:45.191Z,58.31
2019-05-14T08:42:21.347Z,58.05
2019-05-14T08:44:53.236Z,56.47
2019-05-14T08:47:23.861Z,56.11
2019-05-14T08:49:54.503Z,55.22
2019-05-14T08:52:25.077Z,55.57
2019-05-14T08:55:07.226Z,56.71
2019-05-14T08:57:29.143Z,56.30
2019-05-14T09:00:00.011Z,57.29
2019-05-14T09:02:30.644Z,56.41
2019-05-14T09:05:03.742Z,57.27
2019-05-14T09:07:33.541Z,56.87
2019-05-14T09:10:04.320Z,57.28
2019-05-14T09:12:34.900Z,55.70
2019-05-14T09:15:05.607Z,55.77
2019-05-14T09:17:38.791Z,54.78
2019-05-14T09:20:11.419Z,54.36
2019-05-14T09:22:42.063Z,55.58
2019-05-14T09:25:14.776Z,55.88
2019-05-14T09:27:45.442Z,54.55
2019-05-14T09:30:18.432Z,52.83
2019-05-14T09:32:49.471Z,53.03
2019-05-14T09:35:20.538Z,51.56
2019-05-14T09:37:51.564Z,52.67
2019-05-14T09:40:24.226Z,51.56
2019-05-14T09:42:54.826Z,52.42
2019-05-14T09:45:31.553Z,50.27
2019-05-14T09:48:02.115Z,51.67
2019-05-14T09:50:32.706Z,51.95
2019-05-14T09:53:03.279Z,51.27
2019-05-14T09:55:33.901Z,51.08
2019-05-14T09:58:04.545Z,50.17
2019-05-14T10:00:35.080Z,50.33
2019-05-14T10:03:09.361Z,49.55
2019-05-14T10:05:38.008Z,48.16
2019-05-14T10:08:09.044Z,47.74
2019-05-14T10:10:40.118Z,47.39
2019-05-14T10:13:10.994Z,46.11
2019-05-14T10:15:41.582Z,46.34
2019-05-14T10:18:12.645Z,44.78
2019-05-14T10:20:46.051Z,45.10
2019-05-14T10:23:15.852Z,41.52
2019-05-14T10:25:46.443Z,40.99
2019-05-14T10:28:19.281Z,42.14
2019-05-14T10:30:50.397Z,43.10
2019-05-14T10:33:21.205Z,43.07
2019-05-14T10:35:51.780Z,43.19
2019-05-14T10:38:24.448Z,41.49
2019-05-14T10:40:55.013Z,41.95
2019-05-14T10:43:28.569Z,42.49
2019-05-14T10:45:58.208Z,42.40
2019-05-14T10:48:29.236Z,42.52
2019-05-14T10:51:03.496Z,42.54
2019-05-14T10:53:33.966Z,41.78
2019-05-14T10:56:04.598Z,42.31
2019-05-14T10:58:38.201Z,42.40
2019-05-14T11:01:11.272Z,42.28
2019-05-14T11:03:41.140Z,42.41
2019-05-14T11:06:11.936Z,43.71
2019-05-14T11:08:42.857Z,43.45
2019-05-14T11:11:13.400Z,42.99
2019-05-14T11:13:51.270Z,43.99
2019-05-14T11:16:21.848Z,44.11
2019-05-14T11:18:52.427Z,44.27
2019-05-14T11:21:26.872Z,44.84
2019-05-14T11:23:58.571Z,44.78
2019-05-14T11:26:29.732Z,44.43
2019-05-14T11:29:00.570Z,43.31
2019-05-14T11:31:34.209Z,44.38
2019-05-14T11:34:04.783Z,42.90
2019-05-14T11:36:35.337Z,44.67
2019-05-14T11:39:09.387Z,43.90
2019-05-14T11:41:40.273Z,44.06
2019-05-14T11:44:12.511Z,43.67
2019-05-14T11:46:52.542Z,44.46
2019-05-14T11:49:15.482Z,44.11
2019-05-14T11:52:00.988Z,43.79
2019-05-14T11:54:23.018Z,42.37
2019-05-14T11:56:53.021Z,44.18
2019-05-14T11:59:24.768Z,44.21
2019-05-14T12:01:55.365Z,43.98
2019-05-14T12:04:28.208Z,43.39
2019-05-14T12:06:59.126Z,42.45
2019-05-14T12:09:30.299Z,42.99
2019-05-14T12:12:03.938Z,42.46
2019-05-14T12:14:37.996Z,43.71
2019-05-14T12:17:09.646Z,43.56
2019-05-14T12:19:43.570Z,43.12
2019-05-14T12:22:13.478Z,44.16
2019-05-14T12:24:44.144Z,44.09
2019-05-14T12:27:14.701Z,42.29
2019-05-14T12:29:45.369Z,42.79
2019-05-14T12:32:18.713Z,42.19
2019-05-14T12:34:48.970Z,42.22
2019-05-14T12:37:19.750Z,41.60
2019-05-14T12:39:50.364Z,42.81
2019-05-14T12:42:20.953Z,41.00
2019-05-14T12:44:52.742Z,40.84
2019-05-14T12:47:23.310Z,42.19
2019-05-14T12:49:58.562Z,42.83
2019-05-14T12:52:29.678Z,42.21
2019-05-14T12:55:00.755Z,42.45
2019-05-14T12:57:31.294Z,42.89
2019-05-14T13:00:05.689Z,43.02
2019-05-14T13:02:36.206Z,41.90
2019-05-14T13:05:09.019Z,42.45
2019-05-14T13:07:41.776Z,40.95
2019-05-14T13:10:12.737Z,41.12
2019-05-14T13:12:43.307Z,41.82
2019-05-14T13:15:14.489Z,41.54
2019-05-14T13:17:45.083Z,41.82
2019-05-14T13:20:18.558Z,42.66
2019-05-14T13:22:52.475Z,41.70
2019-05-14T13:25:23.099Z,42.03
2019-05-14T13:27:53.659Z,41.34
2019-05-14T13:30:26.531Z,41.35
2019-05-14T13:32:59.222Z,40.39
2019-05-14T13:35:29.413Z,40.06
2019-05-14T13:38:00.003Z,40.76
2019-05-14T13:40:30.602Z,40.97
2019-05-14T13:43:01.160Z,40.60
2019-05-14T13:45:31.990Z,40.50
2019-05-14T13:48:02.527Z,40.77
2019-05-14T13:50:33.287Z,40.43
2019-05-14T13:53:09.382Z,41.34
2019-05-14T13:55:44.123Z,40.43
2019-05-14T13:58:09.702Z,41.66
2019-05-14T14:00:41.834Z,41.60
2019-05-14T14:03:12.396Z,41.23
2019-05-14T14:05:43.007Z,40.89
2019-05-14T14:08:13.640Z,41.00
2019-05-14T14:10:46.341Z,40.59
2019-05-14T14:13:19.496Z,39.98
2019-05-14T14:15:49.187Z,39.91
2019-05-14T14:18:21.068Z,38.81
2019-05-14T14:20:52.115Z,38.62
2019-05-14T14:23:27.309Z,38.16
2019-05-14T14:25:57.141Z,38.62
2019-05-14T14:28:29.167Z,40.35
2019-05-14T14:30:59.831Z,39.75
2019-05-14T14:33:32.050Z,39.11
2019-05-14T14:36:02.663Z,40.03
2019-05-14T14:38:34.137Z,39.63
2019-05-14T14:41:05.396Z,38.62
2019-05-14T14:43:42.343Z,38.54
2019-05-14T14:46:13.987Z,39.49
2019-05-14T14:48:40.654Z,39.50
2019-05-14T14:51:14.036Z,39.59
2019-05-14T14:53:57.757Z,39.55
2019-05-14T14:56:18.875Z,39.78
2019-05-14T14:58:49.603Z,39.66
2019-05-14T15:01:20.566Z,40.44
2019-05-14T15:03:51.324Z,40.16
2019-05-14T15:06:21.937Z,39.15
2019-05-14T15:08:52.545Z,39.80
2019-05-14T15:11:23.176Z,40.07
2019-05-14T15:13:53.754Z,39.34
2019-05-14T15:16:24.382Z,38.37
2019-05-14T15:18:58.285Z,38.31
2019-05-14T15:21:30.193Z,38.00
2019-05-14T15:24:10.004Z,38.01
2019-05-14T15:26:34.253Z,37.80
2019-05-14T15:29:04.794Z,38.04
2019-05-14T15:31:35.471Z,38.15
2019-05-14T15:34:08.709Z,37.98
2019-05-14T15:36:41.309Z,38.40
2019-05-14T15:39:10.910Z,39.20
2019-05-14T15:41:41.493Z,39.51
2019-05-14T15:44:12.123Z,40.08
2019-05-14T15:46:42.783Z,39.35
2019-05-14T15:49:13.396Z,40.06
2019-05-14T15:51:43.979Z,39.05
2019-05-14T15:54:35.086Z,38.44
2019-05-14T15:56:49.353Z,38.13
2019-05-14T15:59:19.777Z,37.10
2019-05-14T16:01:50.406Z,37.20
2019-05-14T16:04:22.341Z,37.70
2019-05-14T16:06:52.980Z,38.73
2019-05-14T16:09:23.814Z,39.45
2019-05-14T16:11:55.056Z,39.34
2019-05-14T16:14:26.406Z,39.42
2019-05-14T16:16:59.573Z,39.92
2019-05-14T16:19:30.411Z,40.18
2019-05-14T16:22:02.417Z,40.23
2019-05-14T16:24:33.401Z,39.27
2019-05-14T16:27:04.349Z,40.12
2019-05-14T16:29:44.049Z,39.53
2019-05-14T16:32:08.563Z,39.28
2019-05-14T16:34:41.428Z,39.00
2019-05-14T16:37:13.412Z,39.03
2019-05-14T16:39:44.015Z,40.12
2019-05-14T16:42:14.620Z,40.81
2019-05-14T16:44:45.203Z,39.57
2019-05-14T16:47:15.833Z,40.19
2019-05-14T16:49:48.221Z,41.30
2019-05-14T16:52:18.689Z,40.39
2019-05-14T16:54:49.266Z,40.36
2019-05-14T16:57:20.797Z,41.83
2019-05-14T16:59:51.333Z,41.40
2019-05-14T17:02:21.973Z,40.96
2019-05-14T17:04:53.304Z,41.82
2019-05-14T17:07:23.897Z,41.69
2019-05-14T17:09:54.504Z,42.27
2019-05-14T17:12:25.090Z,41.58
2019-05-14T17:14:58.553Z,41.67
2019-05-14T17:17:28.121Z,41.93
2019-05-14T17:19:59.363Z,42.39
2019-05-14T17:22:33.581Z,43.21
2019-05-14T17:25:03.404Z,43.66
2019-05-14T17:27:34.023Z,42.19
2019-05-14T17:30:05.108Z,42.77
2019-05-14T17:32:35.742Z,41.07
2019-05-14T17:35:08.225Z,41.43
2019-05-14T17:37:39.685Z,41.82
2019-05-14T17:40:12.110Z,43.96
2019-05-14T17:42:42.753Z,42.67
2019-05-14T17:45:13.445Z,41.39
2019-05-14T17:47:44.051Z,41.30
2019-05-14T17:50:14.635Z,41.55
2019-05-14T17:52:45.761Z,41.69
2019-05-14T17:55:18.648Z,41.44
2019-05-14T17:57:57.515Z,42.06
2019-05-14T18:00:21.574Z,41.66
2019-05-14T18:02:52.211Z,42.65
2019-05-14T18:05:24.807Z,44.67
2019-05-14T18:07:59.342Z,43.68
2019-05-14T18:10:29.676Z,45.46
2019-05-14T18:13:01.900Z,45.27
2019-05-14T18:15:32.517Z,43.15
2019-05-14T18:18:03.268Z,45.15
2019-05-14T18:20:33.832Z,48.04
2019-05-14T18:23:04.445Z,47.71
2019-05-14T18:25:35.093Z,46.19
2019-05-14T18:28:05.750Z,45.89
2019-05-14T18:30:38.518Z,44.96
2019-05-14T18:33:08.686Z,43.65
2019-05-14T18:35:44.275Z,44.20
2019-05-14T18:38:13.064Z,45.03
2019-05-14T18:40:43.797Z,45.46
2019-05-14T18:43:14.564Z,43.82
2019-05-14T18:45:45.137Z,43.80
2019-05-14T18:48:15.755Z,44.46
2019-05-14T18:50:48.454Z,44.06
2019-05-14T18:53:19.058Z,44.83
2019-05-14T18:55:50.216Z,46.39
2019-05-14T18:58:20.937Z,47.67
2019-05-14T19:00:51.550Z,47.28
2019-05-14T19:03:22.197Z,49.16
2019-05-14T19:05:52.719Z,49.10
2019-05-14T19:08:23.413Z,47.67
2019-05-14T19:10:54.031Z,49.98
2019-05-14T19:13:24.644Z,47.90
2019-05-14T19:15:55.241Z,48.62
2019-05-14T19:18:25.852Z,50.69
2019-05-14T19:20:56.449Z,51.09
2019-05-14T19:23:28.925Z,50.79
2019-05-14T19:25:59.397Z,51.66
2019-05-14T19:28:29.993Z,53.21
2019-05-14T19:31:00.583Z,52.82
2019-05-14T19:33:32.690Z,54.12
2019-05-14T19:36:03.292Z,54.24
2019-05-14T19:38:35.906Z,55.03
2019-05-14T19:41:08.449Z,55.30
2019-05-14T19:43:38.511Z,56.13
2019-05-14T19:46:09.129Z,56.16
2019-05-14T19:48:41.201Z,56.14
2019-05-14T19:51:11.776Z,56.65
2019-05-14T19:53:43.392Z,57.15
2019-05-14T19:56:14.086Z,58.12
2019-05-14T19:58:47.530Z,57.97
2019-05-14T20:01:20.293Z,58.64
2019-05-14T20:03:50.956Z,59.25
2019-05-14T20:06:21.563Z,59.33
2019-05-14T20:08:58.577Z,60.87
2019-05-14T20:11:33.593Z,61.39
2019-05-14T20:14:03.582Z,62.02
2019-05-14T20:16:34.154Z,62.70
2019-05-14T20:19:04.768Z,62.29
2019-05-14T20:21:35.360Z,62.68
2019-05-14T20:24:05.949Z,64.24
2019-05-14T20:26:38.763Z,64.40
2019-05-14T20:29:09.010Z,65.48
2019-05-14T20:31:40.274Z,65.25
2019-05-14T20:34:35.968Z,66.00
2019-05-14T20:37:08.493Z,66.90
2019-05-14T20:39:39.227Z,67.26
2019-05-14T20:42:10.139Z,66.99
2019-05-14T20:44:42.014Z,66.92
2019-05-14T20:47:12.698Z,67.10
2019-05-14T20:49:43.228Z,67.93
2019-05-14T20:52:13.767Z,67.83
2019-05-14T20:54:44.385Z,68.46
2019-05-14T20:57:24.486Z,69.22
2019-05-14T20:59:48.258Z,69.72
2019-05-14T21:02:21.837Z,69.82
2019-05-14T21:05:02.391Z,69.79
2019-05-14T21:07:28.823Z,69.90
2019-05-14T21:09:59.646Z,70.20
2019-05-14T21:12:30.302Z,71.65
2019-05-14T21:15:00.825Z,71.22
2019-05-14T21:17:31.442Z,71.31
2019-05-14T21:20:02.057Z,71.64
2019-05-14T21:22:35.358Z,71.94
2019-05-14T21:25:10.963Z,72.22
2019-05-14T21:27:44.825Z,72.79
2019-05-14T21:30:11.313Z,73.79
2019-05-14T21:32:44.906Z,73.57
2019-05-14T21:35:15.447Z,74.52
2019-05-14T21:37:48.071Z,74.59
2019-05-14T21:40:18.692Z,75.09
2019-05-14T21:42:49.406Z,74.86
2019-05-14T21:45:20.000Z,76.02
2019-05-14T21:47:50.701Z,77.01
2019-05-14T21:50:21.326Z,76.64
2019-05-14T21:52:51.913Z,76.77
2019-05-14T21:55:22.483Z,76.56
2019-05-14T21:57:56.963Z,76.67
2019-05-14T22:00:41.459Z,77.66
2019-05-14T22:03:10.280Z,77.51
2019-05-14T22:05:40.379Z,77.86
2019-05-14T22:08:11.005Z,77.63
2019-05-14T22:10:41.553Z,77.74
2019-05-14T22:13:12.120Z,78.49
2019-05-14T22:15:42.649Z,79.07
2019-05-14T22:18:17.687Z,78.98
2019-05-14T22:20:45.590Z,79.30
2019-05-14T22:23:22.213Z,79.46
2019-05-14T22:25:52.762Z,80.28
2019-05-14T22:28:23.339Z,80.46
2019-05-14T22:30:53.873Z,79.98
2019-05-14T22:33:24.481Z,79.92
2019-05-14T22:35:55.036Z,80.01
2019-05-14T22:38:25.632Z,80.15
2019-05-14T22:40:56.139Z,80.41
2019-05-14T22:43:28.828Z,81.04
2019-05-14T22:45:59.258Z,81.82
2019-05-14T22:48:29.907Z,81.30
2019-05-14T22:51:01.715Z,81.24
2019-05-14T22:53:32.337Z,81.28
2019-05-14T22:56:02.902Z,82.21
2019-05-14T22:58:33.500Z,82.26
2019-05-14T23:01:14.436Z,82.42
2019-05-14T23:03:39.373Z,82.29
2019-05-14T23:06:09.094Z,82.21
2019-05-14T23:08:39.806Z,82.61
2019-05-14T23:11:10.351Z,82.71
2019-05-14T23:13:40.956Z,82.78
2019-05-14T23:16:14.679Z,82.81
2019-05-14T23:18:45.269Z,83.08
2019-05-14T23:21:15.808Z,82.60
2019-05-14T23:23:46.432Z,82.81
2019-05-14T23:26:19.078Z,83.02
2019-05-14T23:28:49.392Z,82.92
2019-05-14T23:31:19.935Z,82.83
2019-05-14T23:33:50.508Z,83.22
2019-05-14T23:36:21.146Z,83.96
2019-05-14T23:38:52.439Z,84.02
2019-05-14T23:41:22.958Z,83.80
2019-05-14T23:43:53.573Z,83.62
2019-05-14T23:46:24.108Z,83.29
2019-05-14T23:48:54.666Z,84.32
2019-05-14T23:51:25.238Z,84.78
2019-05-14T23:53:55.877Z,85.41
2019-05-14T23:56:28.664Z,84.99
2019-05-14T23:59:01.951Z,85.20
